createdAt,value
2018-11-27T00:01:09.093Z,19.60
2018-11-27T00:03:42.684Z,20.97
2018-11-27T00:06:10.872Z,23.83
2018-11-27T00:08:39.072Z,19.50
2018-11-27T00:11:07.229Z,21.93
2018-11-27T00:13:35.409Z,20.43
2018-11-27T00:16:03.633Z,20.53
2018-11-27T00:18:31.845Z,19.37
2018-11-27T00:20:59.996Z,20.23
2018-11-27T00:23:28.165Z,22.30
2018-11-27T00:25:56.349Z,22.20
2018-11-27T00:28:24.520Z,21.40
2018-11-27T00:30:52.702Z,21.53
2018-11-27T00:33:20.917Z,25.83
2018-11-27T00:35:49.093Z,22.70
2018-11-27T00:38:17.256Z,20.03
2018-11-27T00:40:45.437Z,24.70
2018-11-27T00:43:13.594Z,21.47
2018-11-27T00:45:41.796Z,24.50
2018-11-27T00:48:09.948Z,19.67
2018-11-27T00:50:38.127Z,21.63
2018-11-27T00:53:06.280Z,20.33
2018-11-27T00:55:34.454Z,19.67
2018-11-27T00:58:02.628Z,22.93
2018-11-27T01:00:30.816Z,24.20
2018-11-27T01:02:59.023Z,20.53
2018-11-27T01:05:27.195Z,19.50
2018-11-27T01:07:55.352Z,19.83
2018-11-27T01:10:24.144Z,20.83
2018-11-27T01:12:52.396Z,20.03
2018-11-27T01:15:20.610Z,21.13
2018-11-27T01:17:56.034Z,22.90
2018-11-27T01:20:24.333Z,18.20
2018-11-27T01:22:52.501Z,21.37
2018-11-27T01:25:20.675Z,21.60
2018-11-27T01:27:48.869Z,22.60
2018-11-27T01:30:17.589Z,22.07
2018-11-27T01:32:45.945Z,25.47
2018-11-27T01:35:15.521Z,23.20
2018-11-27T01:37:43.746Z,21.73
2018-11-27T01:40:12.625Z,28.57
2018-11-27T01:42:40.853Z,21.77
2018-11-27T01:45:10.616Z,19.90
2018-11-27T01:47:38.781Z,20.97
2018-11-27T01:50:08.785Z,22.47
2018-11-27T01:52:36.960Z,23.93
2018-11-27T01:55:05.205Z,23.17
2018-11-27T01:57:33.385Z,20.27
2018-11-27T02:00:01.544Z,20.73
2018-11-27T02:02:29.720Z,20.70
2018-11-27T02:04:57.930Z,19.97
2018-11-27T02:07:26.088Z,21.80
2018-11-27T02:09:54.272Z,18.67
2018-11-27T02:12:22.445Z,21.17
2018-11-27T02:14:50.623Z,20.50
2018-11-27T02:17:18.785Z,18.97
2018-11-27T02:19:46.940Z,18.90
2018-11-27T02:22:15.088Z,20.80
2018-11-27T02:24:43.227Z,24.10
2018-11-27T02:27:11.397Z,23.07
2018-11-27T02:29:39.544Z,19.90
2018-11-27T02:32:07.728Z,23.70
2018-11-27T02:34:35.880Z,20.57
2018-11-27T02:37:04.054Z,21.87
2018-11-27T02:39:32.177Z,25.07
2018-11-27T02:42:00.325Z,28.40
2018-11-27T02:44:28.477Z,26.47
2018-11-27T02:46:56.655Z,27.63
2018-11-27T02:49:24.799Z,22.03
2018-11-27T02:51:52.960Z,24.40
2018-11-27T02:54:21.112Z,24.80
2018-11-27T02:56:49.292Z,30.57
2018-11-27T02:59:17.438Z,24.07
2018-11-27T03:01:45.589Z,25.13
2018-11-27T03:04:13.755Z,27.07
2018-11-27T03:06:41.922Z,27.40
2018-11-27T03:09:10.073Z,28.57
2018-11-27T03:11:38.260Z,29.93
2018-11-27T03:14:06.624Z,29.90
2018-11-27T03:16:34.787Z,29.60
2018-11-27T03:19:02.948Z,22.50
2018-11-27T03:21:31.117Z,26.80
2018-11-27T03:23:59.253Z,29.10
2018-11-27T03:26:27.425Z,30.73
2018-11-27T03:28:55.577Z,25.83
2018-11-27T03:31:23.809Z,35.30
2018-11-27T03:33:52.017Z,29.40
2018-11-27T03:36:20.200Z,31.30
2018-11-27T03:38:48.338Z,29.10
2018-11-27T03:41:16.543Z,29.83
2018-11-27T03:43:44.896Z,29.90
2018-11-27T03:46:13.069Z,28.30
2018-11-27T03:48:41.278Z,31.13
2018-11-27T03:51:09.445Z,26.93
2018-11-27T03:53:37.619Z,27.03
2018-11-27T03:56:05.927Z,26.20
2018-11-27T03:58:34.106Z,25.50
2018-11-27T04:01:02.258Z,26.53
2018-11-27T04:03:30.440Z,23.53
2018-11-27T04:05:58.605Z,31.57
2018-11-27T04:08:26.788Z,24.00
2018-11-27T04:10:54.940Z,31.73
2018-11-27T04:13:23.120Z,27.23
2018-11-27T04:15:51.275Z,30.60
2018-11-27T04:18:19.462Z,24.80
2018-11-27T04:20:47.629Z,26.33
2018-11-27T04:23:15.806Z,28.47
2018-11-27T04:25:43.979Z,26.80
2018-11-27T04:28:12.161Z,28.03
2018-11-27T04:30:40.312Z,30.40
2018-11-27T04:33:08.492Z,36.80
2018-11-27T04:35:36.684Z,29.67
2018-11-27T04:38:05.930Z,29.40
2018-11-27T04:40:34.142Z,28.43
2018-11-27T04:43:02.330Z,28.50
2018-11-27T04:45:30.537Z,32.43
2018-11-27T04:47:58.722Z,36.60
2018-11-27T04:50:26.881Z,33.07
2018-11-27T04:52:55.072Z,31.00
2018-11-27T04:55:23.241Z,27.17
2018-11-27T04:57:51.887Z,32.80
2018-11-27T05:00:20.469Z,30.40
2018-11-27T05:02:48.706Z,34.33
2018-11-27T05:05:16.904Z,32.10
2018-11-27T05:07:45.126Z,33.70
2018-11-27T05:10:13.669Z,30.17
2018-11-27T05:12:42.041Z,29.63
2018-11-27T05:15:14.697Z,30.93
2018-11-27T05:17:47.873Z,32.23
2018-11-27T05:20:11.544Z,33.63
2018-11-27T05:22:39.727Z,30.30
2018-11-27T05:25:08.749Z,33.67
2018-11-27T05:27:36.941Z,31.00
2018-11-27T05:30:08.921Z,33.17
2018-11-27T05:32:37.374Z,28.97
2018-11-27T05:35:06.023Z,34.20
2018-11-27T05:37:34.205Z,26.63
2018-11-27T05:40:02.429Z,27.17
2018-11-27T05:42:30.605Z,32.77
2018-11-27T05:44:58.788Z,33.70
2018-11-27T05:47:26.948Z,30.50
2018-11-27T05:49:55.164Z,33.83
2018-11-27T05:52:23.312Z,30.23
2018-11-27T05:54:51.505Z,33.57
2018-11-27T05:57:19.653Z,30.80
2018-11-27T05:59:47.856Z,29.63
2018-11-27T06:02:15.998Z,36.80
2018-11-27T06:04:44.192Z,27.70
2018-11-27T06:07:12.352Z,31.73
2018-11-27T06:09:40.537Z,32.43
2018-11-27T06:12:08.708Z,30.53
2018-11-27T06:14:36.909Z,31.97
2018-11-27T06:17:05.619Z,30.40
2018-11-27T06:19:33.803Z,30.30
2018-11-27T06:22:01.965Z,33.03
2018-11-27T06:24:30.162Z,30.00
2018-11-27T06:26:58.329Z,33.50
2018-11-27T06:29:26.516Z,26.13
2018-11-27T06:31:54.693Z,29.13
2018-11-27T06:34:22.878Z,35.53
2018-11-27T06:36:51.049Z,35.50
2018-11-27T06:39:19.245Z,34.33
2018-11-27T06:41:47.392Z,32.37
2018-11-27T06:44:15.593Z,38.70
2018-11-27T06:46:43.754Z,35.50
2018-11-27T06:49:11.929Z,29.53
2018-11-27T06:51:40.102Z,39.40
2018-11-27T06:54:08.312Z,31.73
2018-11-27T06:56:36.465Z,31.83
2018-11-27T06:59:04.815Z,28.97
2018-11-27T07:01:32.984Z,31.60
2018-11-27T07:04:01.159Z,37.30
2018-11-27T07:06:29.338Z,30.23
2018-11-27T07:08:57.544Z,33.30
2018-11-27T07:11:25.720Z,34.80
2018-11-27T07:13:53.892Z,36.43
2018-11-27T07:16:22.081Z,34.57
2018-11-27T07:18:50.241Z,32.20
2018-11-27T07:21:18.460Z,34.67
2018-11-27T07:23:46.617Z,32.23
2018-11-27T07:26:14.800Z,32.93
2018-11-27T07:28:42.952Z,27.63
2018-11-27T07:31:11.129Z,33.07
2018-11-27T07:33:39.300Z,33.73
2018-11-27T07:36:08.214Z,32.03
2018-11-27T07:38:35.691Z,34.57
2018-11-27T07:41:03.872Z,33.20
2018-11-27T07:43:32.033Z,31.63
2018-11-27T07:46:00.215Z,32.53
2018-11-27T07:48:28.384Z,37.77
2018-11-27T07:50:56.569Z,36.83
2018-11-27T07:53:24.721Z,31.20
2018-11-27T07:55:52.913Z,43.27
2018-11-27T07:58:21.072Z,30.27
2018-11-27T08:00:49.273Z,32.93
2018-11-27T08:03:17.481Z,36.53
2018-11-27T08:05:45.681Z,33.67
2018-11-27T08:08:15.480Z,34.17
2018-11-27T08:10:44.133Z,33.93
2018-11-27T08:13:12.340Z,31.43
2018-11-27T08:15:40.532Z,40.70
2018-11-27T08:18:09.103Z,32.87
2018-11-27T08:20:37.277Z,34.33
2018-11-27T08:23:05.931Z,34.80
2018-11-27T08:25:34.124Z,32.60
2018-11-27T08:28:02.330Z,36.80
2018-11-27T08:30:30.513Z,38.03
2018-11-27T08:32:58.672Z,30.30
2018-11-27T08:35:27.744Z,35.53
2018-11-27T08:37:59.333Z,35.10
2018-11-27T08:40:28.181Z,38.00
2018-11-27T08:42:56.345Z,29.70
2018-11-27T08:45:24.799Z,35.23
2018-11-27T08:47:53.452Z,32.57
2018-11-27T08:50:22.169Z,35.20
2018-11-27T08:52:50.895Z,36.63
2018-11-27T08:55:21.716Z,33.73
2018-11-27T08:57:49.913Z,31.97
2018-11-27T09:00:18.604Z,33.13
2018-11-27T09:02:46.860Z,36.70
2018-11-27T09:05:15.093Z,33.67
2018-11-27T09:07:43.517Z,34.63
2018-11-27T09:10:13.210Z,27.77
2018-11-27T09:12:41.423Z,31.33
2018-11-27T09:15:10.488Z,35.53
2018-11-27T09:17:38.705Z,31.07
2018-11-27T09:20:08.124Z,33.53
2018-11-27T09:22:36.325Z,30.90
2018-11-27T09:25:05.010Z,36.60
2018-11-27T09:27:33.189Z,35.30
2018-11-27T09:30:01.358Z,31.80
2018-11-27T09:32:29.565Z,31.70
2018-11-27T09:34:57.726Z,33.43
2018-11-27T09:37:25.917Z,33.50
2018-11-27T09:39:54.084Z,33.23
2018-11-27T09:42:22.269Z,32.90
2018-11-27T09:44:50.429Z,33.67
2018-11-27T09:47:18.613Z,34.97
2018-11-27T09:49:46.776Z,39.17
2018-11-27T09:52:14.965Z,34.77
2018-11-27T09:54:43.137Z,41.93
2018-11-27T09:57:11.341Z,34.63
2018-11-27T09:59:39.528Z,36.63
2018-11-27T10:02:07.740Z,39.00
2018-11-27T10:04:35.892Z,38.73
2018-11-27T10:07:04.825Z,34.70
2018-11-27T10:09:32.373Z,40.90
2018-11-27T10:12:00.579Z,36.57
2018-11-27T10:14:28.728Z,31.93
2018-11-27T10:16:56.908Z,36.73
2018-11-27T10:19:27.587Z,32.30
2018-11-27T10:21:53.332Z,35.20
2018-11-27T10:24:21.489Z,33.20
2018-11-27T10:26:49.650Z,32.03
2018-11-27T10:29:17.841Z,34.47
2018-11-27T10:31:46.061Z,38.50
2018-11-27T10:34:14.241Z,36.20
2018-11-27T10:36:43.532Z,31.77
2018-11-27T10:39:10.613Z,30.40
2018-11-27T10:41:38.759Z,31.37
2018-11-27T10:44:06.980Z,35.97
2018-11-27T10:46:35.153Z,36.23
2018-11-27T10:49:03.354Z,37.00
2018-11-27T10:51:31.512Z,30.70
2018-11-27T10:53:59.702Z,32.97
2018-11-27T10:56:27.865Z,28.67
2018-11-27T10:58:56.036Z,30.60
2018-11-27T11:01:29.472Z,29.80
2018-11-27T11:03:57.653Z,31.83
2018-11-27T11:06:25.832Z,26.33
2018-11-27T11:08:54.045Z,26.87
2018-11-27T11:11:22.216Z,33.67
2018-11-27T11:13:50.384Z,31.27
2018-11-27T11:16:18.541Z,31.70
2018-11-27T11:18:46.729Z,26.97
2018-11-27T11:21:14.893Z,32.17
2018-11-27T11:23:43.093Z,28.63
2018-11-27T11:26:11.301Z,26.93
2018-11-27T11:28:39.505Z,28.73
2018-11-27T11:31:07.684Z,28.83
2018-11-27T11:33:35.914Z,24.57
2018-11-27T11:36:04.088Z,25.27
2018-11-27T11:38:32.280Z,24.57
2018-11-27T11:41:00.445Z,25.90
2018-11-27T11:43:28.625Z,24.80
2018-11-27T11:45:56.797Z,24.93
2018-11-27T11:48:24.993Z,29.43
2018-11-27T11:50:53.168Z,27.13
2018-11-27T11:53:21.373Z,25.27
2018-11-27T11:55:49.607Z,29.47
2018-11-27T11:58:17.803Z,26.67
2018-11-27T12:00:53.947Z,24.40
2018-11-27T12:03:22.229Z,25.00
2018-11-27T12:05:50.348Z,25.23
2018-11-27T12:08:18.500Z,22.60
2018-11-27T12:10:46.688Z,25.73
2018-11-27T12:13:14.844Z,22.47
2018-11-27T12:15:43.059Z,20.87
2018-11-27T12:18:11.208Z,25.30
2018-11-27T12:20:39.800Z,27.27
2018-11-27T12:23:09.661Z,24.77
2018-11-27T12:25:37.213Z,27.67
2018-11-27T12:28:06.031Z,30.23
2018-11-27T12:30:34.224Z,27.93
2018-11-27T12:33:02.453Z,28.73
2018-11-27T12:35:30.676Z,24.80
2018-11-27T12:37:58.847Z,28.17
2018-11-27T12:40:28.720Z,25.07
2018-11-27T12:42:57.344Z,26.53
2018-11-27T12:45:27.150Z,27.10
2018-11-27T12:47:55.776Z,29.23
2018-11-27T12:50:40.993Z,30.03
2018-11-27T12:53:09.750Z,29.57
2018-11-27T12:55:38.713Z,25.27
2018-11-27T12:58:07.286Z,28.00
2018-11-27T13:00:35.586Z,25.87
2018-11-27T13:03:03.755Z,26.50
2018-11-27T13:05:41.408Z,24.87
2018-11-27T13:08:16.803Z,27.93
2018-11-27T13:10:45.004Z,25.70
2018-11-27T13:13:13.180Z,25.67
2018-11-27T13:15:41.557Z,27.10
2018-11-27T13:18:09.893Z,29.70
2018-11-27T13:20:38.344Z,26.27
2018-11-27T13:23:06.649Z,29.40
2018-11-27T13:25:34.952Z,28.83
2018-11-27T13:28:03.149Z,37.40
2018-11-27T13:30:52.017Z,31.47
2018-11-27T13:33:23.013Z,32.47
2018-11-27T13:35:51.207Z,25.37
2018-11-27T13:38:19.376Z,27.90
2018-11-27T13:40:47.568Z,29.33
2018-11-27T13:43:20.094Z,26.90
2018-11-27T13:45:48.321Z,27.57
2018-11-27T13:48:16.494Z,25.17
2018-11-27T13:50:44.705Z,26.73
2018-11-27T13:53:12.890Z,27.00
2018-11-27T13:55:41.129Z,27.60
2018-11-27T13:58:09.293Z,29.43
2018-11-27T14:00:37.485Z,31.63
2018-11-27T14:03:10.677Z,29.90
2018-11-27T14:05:34.005Z,26.70
2018-11-27T14:08:02.215Z,28.67
2018-11-27T14:10:30.413Z,30.50
2018-11-27T14:12:58.580Z,32.50
2018-11-27T14:15:26.834Z,28.23
2018-11-27T14:17:55.344Z,35.30
2018-11-27T14:20:23.508Z,32.00
2018-11-27T14:22:51.771Z,33.13
2018-11-27T14:25:19.968Z,27.53
2018-11-27T14:27:49.000Z,30.90
2018-11-27T14:30:18.779Z,29.37
2018-11-27T14:32:47.134Z,32.70
2018-11-27T14:35:15.525Z,30.30
2018-11-27T14:37:44.153Z,30.63
2018-11-27T14:40:13.936Z,33.93
2018-11-27T14:42:42.217Z,34.83
2018-11-27T14:45:13.080Z,26.20
2018-11-27T14:47:41.260Z,28.23
2018-11-27T14:50:10.112Z,32.50
2018-11-27T14:52:38.321Z,36.33
2018-11-27T14:55:09.193Z,30.93
2018-11-27T14:57:37.376Z,30.93
2018-11-27T15:00:07.621Z,33.70
2018-11-27T15:02:35.820Z,31.20
2018-11-27T15:05:04.052Z,28.87
2018-11-27T15:07:32.245Z,29.73
2018-11-27T15:10:00.440Z,30.23
2018-11-27T15:12:28.604Z,29.07
2018-11-27T15:14:56.769Z,32.43
2018-11-27T15:17:25.000Z,35.43
2018-11-27T15:19:53.153Z,26.60
2018-11-27T15:22:21.345Z,30.97
2018-11-27T15:24:49.505Z,33.27
2018-11-27T15:27:17.693Z,30.53
2018-11-27T15:29:45.861Z,27.83
2018-11-27T15:32:14.053Z,25.93
2018-11-27T15:34:42.220Z,25.37
2018-11-27T15:37:10.437Z,29.17
2018-11-27T15:39:38.619Z,29.20
2018-11-27T15:42:06.863Z,34.03
2018-11-27T15:44:35.040Z,26.13
2018-11-27T15:47:03.216Z,29.80
2018-11-27T15:49:31.377Z,35.57
2018-11-27T15:51:59.553Z,30.43
2018-11-27T15:54:27.726Z,30.03
2018-11-27T15:56:55.919Z,27.80
2018-11-27T15:59:24.090Z,29.30
2018-11-27T16:01:52.294Z,34.27
2018-11-27T16:04:20.493Z,78.07
2018-11-27T16:06:48.643Z,26.73
2018-11-27T16:09:16.832Z,29.80
2018-11-27T16:11:45.094Z,30.07
2018-11-27T16:14:13.252Z,31.27
2018-11-27T16:16:41.429Z,32.80
2018-11-27T16:19:09.619Z,32.30
2018-11-27T16:21:37.820Z,25.80
2018-11-27T16:24:06.020Z,31.63
2018-11-27T16:26:34.199Z,34.70
2018-11-27T16:29:02.404Z,31.43
2018-11-27T16:31:30.564Z,35.43
2018-11-27T16:33:58.766Z,31.20
2018-11-27T16:36:26.933Z,32.07
2018-11-27T16:39:10.525Z,33.17
2018-11-27T16:41:38.852Z,27.67
2018-11-27T16:44:07.056Z,35.30
2018-11-27T16:46:35.276Z,37.90
2018-11-27T16:49:03.483Z,40.90
2018-11-27T16:51:31.668Z,38.40
2018-11-27T16:53:59.845Z,28.60
2018-11-27T16:56:28.013Z,30.23
2018-11-27T16:58:56.196Z,28.20
2018-11-27T17:01:24.369Z,29.10
2018-11-27T17:03:52.548Z,25.50
2018-11-27T17:06:20.704Z,36.90
2018-11-27T17:08:48.877Z,30.33
2018-11-27T17:11:17.037Z,27.83
2018-11-27T17:13:45.221Z,33.37
2018-11-27T17:16:13.384Z,29.77
2018-11-27T17:18:41.577Z,29.93
2018-11-27T17:21:09.742Z,31.70
2018-11-27T17:23:37.941Z,26.87
2018-11-27T17:26:06.313Z,29.40
2018-11-27T17:28:34.525Z,30.90
2018-11-27T17:31:04.068Z,29.80
2018-11-27T17:33:33.871Z,28.60
2018-11-27T17:36:02.400Z,29.40
2018-11-27T17:38:30.744Z,34.10
2018-11-27T17:40:58.913Z,35.87
2018-11-27T17:43:27.096Z,41.17
2018-11-27T17:45:55.256Z,32.00
2018-11-27T17:48:23.457Z,30.57
2018-11-27T17:50:51.622Z,38.63
2018-11-27T17:53:19.794Z,36.47
2018-11-27T17:55:48.069Z,36.70
2018-11-27T17:58:16.205Z,32.53
2018-11-27T18:00:44.377Z,28.03
2018-11-27T18:03:12.565Z,35.13
2018-11-27T18:05:40.758Z,30.70
2018-11-27T18:08:08.961Z,29.90
2018-11-27T18:10:37.158Z,27.43
2018-11-27T18:13:05.725Z,35.87
2018-11-27T18:15:33.985Z,38.43
2018-11-27T18:18:02.157Z,29.47
2018-11-27T18:20:30.349Z,29.27
2018-11-27T18:22:58.516Z,28.53
2018-11-27T18:25:26.720Z,27.07
2018-11-27T18:27:54.903Z,32.40
2018-11-27T18:30:23.553Z,27.80
2018-11-27T18:32:51.744Z,29.30
2018-11-27T18:35:20.403Z,34.00
2018-11-27T18:37:48.773Z,33.10
2018-11-27T18:40:17.423Z,31.97
2018-11-27T18:42:45.771Z,33.17
2018-11-27T18:45:21.207Z,29.67
2018-11-27T18:47:49.415Z,36.67
2018-11-27T18:50:17.619Z,33.53
2018-11-27T18:52:45.811Z,28.77
2018-11-27T18:55:14.608Z,34.93
2018-11-27T18:57:43.079Z,31.80
2018-11-27T19:00:12.953Z,32.50
2018-11-27T19:02:41.145Z,29.70
2018-11-27T19:05:09.377Z,34.90
2018-11-27T19:07:37.547Z,36.77
2018-11-27T19:10:08.332Z,32.73
2018-11-27T19:12:36.498Z,39.20
2018-11-27T19:15:05.476Z,35.60
2018-11-27T19:17:33.641Z,32.10
2018-11-27T19:20:01.845Z,33.70
2018-11-27T19:22:30.006Z,39.53
2018-11-27T19:24:58.195Z,44.03
2018-11-27T19:27:26.355Z,34.90
2018-11-27T19:29:54.547Z,38.37
2018-11-27T19:32:22.700Z,31.47
2018-11-27T19:34:50.872Z,33.83
2018-11-27T19:37:19.046Z,31.97
2018-11-27T19:39:47.237Z,37.43
2018-11-27T19:42:15.400Z,41.17
2018-11-27T19:44:43.555Z,45.90
2018-11-27T19:47:11.749Z,42.53
2018-11-27T19:49:40.376Z,31.03
2018-11-27T19:52:08.593Z,30.83
2018-11-27T19:54:36.734Z,32.40
2018-11-27T19:57:05.372Z,63.30
2018-11-27T19:59:33.537Z,40.80
2018-11-27T20:02:01.713Z,32.33
2018-11-27T20:04:29.922Z,37.00
2018-11-27T20:07:03.492Z,37.03
2018-11-27T20:09:31.665Z,50.87
2018-11-27T20:11:59.861Z,45.27
2018-11-27T20:14:28.027Z,39.27
2018-11-27T20:16:56.224Z,36.50
2018-11-27T20:19:24.392Z,49.90
2018-11-27T20:21:52.577Z,35.20
2018-11-27T20:24:20.732Z,39.63
2018-11-27T20:26:48.917Z,36.13
2018-11-27T20:29:17.260Z,39.20
2018-11-27T20:31:45.477Z,45.83
2018-11-27T20:34:13.616Z,37.20
2018-11-27T20:36:41.824Z,34.20
2018-11-27T20:39:10.007Z,37.53
2018-11-27T20:41:38.176Z,48.27
2018-11-27T20:44:06.330Z,36.40
2018-11-27T20:46:34.497Z,34.50
2018-11-27T20:49:02.662Z,37.83
2018-11-27T20:51:30.833Z,27.87
2018-11-27T20:53:58.972Z,30.77
2018-11-27T20:56:27.136Z,37.30
2018-11-27T20:58:55.277Z,36.43
2018-11-27T21:01:23.464Z,35.90
2018-11-27T21:03:51.613Z,35.30
2018-11-27T21:06:19.770Z,40.73
2018-11-27T21:08:47.917Z,39.37
2018-11-27T21:11:16.136Z,39.80
2018-11-27T21:13:44.300Z,36.33
2018-11-27T21:16:12.476Z,40.00
2018-11-27T21:18:40.637Z,33.57
2018-11-27T21:21:08.813Z,38.67
2018-11-27T21:23:36.948Z,34.40
2018-11-27T21:26:05.576Z,35.07
2018-11-27T21:28:34.125Z,38.27
2018-11-27T21:31:02.839Z,34.70
2018-11-27T21:33:31.081Z,32.17
2018-11-27T21:35:59.228Z,33.23
2018-11-27T21:38:27.412Z,38.97
2018-11-27T21:40:55.560Z,33.57
2018-11-27T21:43:23.748Z,36.20
2018-11-27T21:45:51.917Z,30.80
2018-11-27T21:48:20.084Z,36.93
2018-11-27T21:50:48.281Z,38.20
2018-11-27T21:53:16.450Z,33.00
2018-11-27T21:55:44.609Z,35.23
2018-11-27T21:58:12.780Z,35.60
2018-11-27T22:00:41.424Z,37.97
2018-11-27T22:03:10.089Z,30.70
2018-11-27T22:05:38.249Z,36.23
2018-11-27T22:08:06.885Z,30.37
2018-11-27T22:10:35.031Z,34.50
2018-11-27T22:13:03.202Z,33.40
2018-11-27T22:15:32.037Z,31.20
2018-11-27T22:18:00.222Z,32.20
2018-11-27T22:20:28.373Z,35.97
2018-11-27T22:22:56.551Z,35.27
2018-11-27T22:25:24.700Z,35.40
2018-11-27T22:27:52.903Z,32.80
2018-11-27T22:30:21.253Z,33.43
2018-11-27T22:32:50.882Z,36.50
2018-11-27T22:35:19.046Z,33.60
2018-11-27T22:37:47.221Z,30.93
2018-11-27T22:40:15.970Z,28.50
2018-11-27T22:42:44.541Z,32.40
2018-11-27T22:45:13.366Z,27.77
2018-11-27T22:47:41.555Z,30.27
2018-11-27T22:50:10.417Z,29.10
2018-11-27T22:52:38.603Z,28.67
2018-11-27T22:55:06.955Z,32.70
2018-11-27T22:57:35.140Z,29.23
2018-11-27T23:00:03.315Z,33.63
2018-11-27T23:02:31.472Z,29.30
2018-11-27T23:04:59.649Z,36.80
2018-11-27T23:07:33.294Z,35.63
2018-11-27T23:10:01.444Z,29.97
2018-11-27T23:12:29.629Z,35.23
2018-11-27T23:14:57.806Z,37.13
2018-11-27T23:17:25.952Z,34.37
2018-11-27T23:19:54.125Z,31.07
2018-11-27T23:22:22.269Z,39.60
2018-11-27T23:24:50.445Z,27.97
2018-11-27T23:27:18.621Z,30.00
2018-11-27T23:29:46.786Z,25.70
2018-11-27T23:32:14.945Z,32.53
2018-11-27T23:34:43.136Z,28.43
2018-11-27T23:37:11.276Z,31.27
2018-11-27T23:39:39.446Z,28.70
2018-11-27T23:42:07.597Z,27.13
2018-11-27T23:44:35.758Z,30.83
2018-11-27T23:47:03.913Z,27.77
2018-11-27T23:49:32.144Z,27.63
2018-11-27T23:52:00.293Z,28.53
2018-11-27T23:54:28.465Z,22.87
2018-11-27T23:56:56.657Z,32.00
2018-11-27T23:59:24.816Z,33.70
